createdAt,value
2023-08-19T00:02:31.082Z,21.09
2023-08-19T00:07:27.608Z,21.01
2023-08-19T00:12:24.183Z,21.06
2023-08-19T00:17:20.601Z,20.96
2023-08-19T00:22:18.801Z,20.74
2023-08-19T00:27:15.190Z,20.80
2023-08-19T00:32:11.629Z,20.67
2023-08-19T00:37:08.430Z,20.56
2023-08-19T00:42:05.186Z,20.55
2023-08-19T00:47:02.933Z,20.60
2023-08-19T00:52:01.848Z,20.58
2023-08-19T00:56:58.389Z,20.57
2023-08-19T01:01:54.812Z,20.48
2023-08-19T01:07:00.432Z,20.41
2023-08-19T01:12:15.690Z,20.21
2023-08-19T01:17:15.583Z,20.06
2023-08-19T01:22:17.748Z,20.08
2023-08-19T01:27:25.690Z,20.02
2023-08-19T01:32:23.258Z,19.97
2023-08-19T01:37:29.528Z,20.00
2023-08-19T01:42:26.717Z,20.13
2023-08-19T01:47:23.223Z,20.25
2023-08-19T01:52:20.192Z,20.39
2023-08-19T01:57:16.629Z,20.53
2023-08-19T02:02:13.032Z,20.62
2023-08-19T02:07:09.465Z,20.60
2023-08-19T02:12:06.178Z,20.58
2023-08-19T02:17:02.675Z,20.38
2023-08-19T02:21:59.119Z,20.41
2023-08-19T02:26:55.595Z,20.32
2023-08-19T02:31:51.997Z,20.24
2023-08-19T02:36:48.418Z,20.18
2023-08-19T02:41:45.059Z,20.10
2023-08-19T02:46:41.550Z,20.10
2023-08-19T02:51:38.076Z,19.99
2023-08-19T02:56:34.787Z,19.99
2023-08-19T03:01:31.232Z,20.06
2023-08-19T03:06:27.645Z,20.03
2023-08-19T03:11:24.100Z,19.95
2023-08-19T03:16:20.744Z,20.02
2023-08-19T03:21:17.259Z,19.93
2023-08-19T03:26:13.727Z,19.94
2023-08-19T03:31:13.820Z,19.98
2023-08-19T03:36:10.237Z,19.86
2023-08-19T03:41:06.649Z,19.84
2023-08-19T03:46:04.022Z,19.89
2023-08-19T03:51:00.426Z,19.95
2023-08-19T03:55:56.857Z,19.93
2023-08-19T04:00:53.365Z,19.97
2023-08-19T04:05:49.763Z,19.95
2023-08-19T04:10:46.152Z,20.13
2023-08-19T04:15:42.654Z,20.34
2023-08-19T04:20:42.526Z,20.42
2023-08-19T04:25:39.316Z,20.53
2023-08-19T04:30:37.164Z,20.72
2023-08-19T04:35:33.642Z,20.86
2023-08-19T04:40:31.729Z,20.87
2023-08-19T04:45:28.136Z,20.94
2023-08-19T04:50:24.547Z,21.01
2023-08-19T04:55:20.966Z,21.04
2023-08-19T05:00:18.370Z,21.00
2023-08-19T05:05:15.164Z,21.05
2023-08-19T05:10:11.574Z,21.15
2023-08-19T05:15:10.279Z,21.14
2023-08-19T05:20:07.926Z,21.28
2023-08-19T05:25:06.512Z,21.44
2023-08-19T05:30:05.412Z,21.64
2023-08-19T05:35:02.325Z,21.74
2023-08-19T05:39:58.731Z,22.07
2023-08-19T05:44:56.113Z,22.50
2023-08-19T05:49:52.578Z,22.85
2023-08-19T05:54:50.522Z,22.92
2023-08-19T05:59:47.017Z,23.15
2023-08-19T06:04:44.226Z,23.39
2023-08-19T06:09:40.710Z,23.61
2023-08-19T06:14:37.112Z,23.81
2023-08-19T06:19:33.469Z,24.01
2023-08-19T06:24:30.175Z,24.30
2023-08-19T06:29:26.767Z,24.64
2023-08-19T06:34:23.430Z,24.95
2023-08-19T06:39:29.907Z,25.24
2023-08-19T06:44:28.992Z,25.57
2023-08-19T06:49:25.678Z,25.87
2023-08-19T06:54:22.585Z,26.13
2023-08-19T06:59:39.486Z,26.22
2023-08-19T07:04:36.549Z,26.26
2023-08-19T07:09:35.029Z,26.67
2023-08-19T07:14:32.003Z,26.96
2023-08-19T07:19:41.440Z,26.96
2023-08-19T07:24:38.252Z,26.77
2023-08-19T07:29:36.287Z,26.69
2023-08-19T07:34:32.747Z,26.60
2023-08-19T07:39:29.168Z,26.51
2023-08-19T07:44:25.779Z,26.54
2023-08-19T07:49:22.386Z,26.63
2023-08-19T07:54:22.755Z,26.79
2023-08-19T07:59:19.261Z,26.97
2023-08-19T08:04:15.661Z,27.15
2023-08-19T08:09:12.262Z,27.33
2023-08-19T08:14:08.696Z,27.58
2023-08-19T08:19:05.057Z,27.98
2023-08-19T08:24:01.535Z,28.48
2023-08-19T08:28:58.030Z,29.06
2023-08-19T08:33:54.505Z,28.59
2023-08-19T08:38:50.912Z,28.28
2023-08-19T08:43:47.855Z,28.23
2023-08-19T08:48:45.258Z,28.52
2023-08-19T08:53:41.743Z,28.46
2023-08-19T08:58:38.090Z,28.35
2023-08-19T09:03:34.893Z,28.62
2023-08-19T09:08:38.240Z,28.84
2023-08-19T09:13:36.899Z,28.85
2023-08-19T09:18:33.401Z,29.33
2023-08-19T09:23:30.417Z,29.57
2023-08-19T09:28:26.789Z,30.01
2023-08-19T09:33:24.027Z,30.15
2023-08-19T09:38:21.931Z,30.56
2023-08-19T09:43:18.595Z,31.10
2023-08-19T09:48:15.474Z,31.17
2023-08-19T09:53:17.068Z,30.79
2023-08-19T09:58:13.710Z,30.61
2023-08-19T10:03:10.413Z,30.73
2023-08-19T10:08:08.816Z,30.73
2023-08-19T10:13:07.790Z,30.76
2023-08-19T10:18:10.910Z,30.68
2023-08-19T10:23:09.613Z,30.50
2023-08-19T10:28:08.084Z,30.25
2023-08-19T10:33:06.244Z,30.25
2023-08-19T10:38:12.726Z,29.95
2023-08-19T10:43:09.317Z,30.12
2023-08-19T10:48:05.984Z,30.15
2023-08-19T10:53:10.484Z,30.08
2023-08-19T10:58:07.210Z,30.15
2023-08-19T11:03:03.883Z,29.95
2023-08-19T11:08:00.424Z,30.08
2023-08-19T11:12:57.980Z,29.96
2023-08-19T11:17:54.448Z,29.76
2023-08-19T11:22:51.924Z,29.98
2023-08-19T11:27:50.068Z,30.22
2023-08-19T11:32:48.775Z,30.29
2023-08-19T11:37:46.126Z,29.95
2023-08-19T11:42:42.562Z,29.77
2023-08-19T11:47:39.741Z,29.93
2023-08-19T11:52:36.166Z,30.13
2023-08-19T11:57:36.703Z,30.09
2023-08-19T12:02:33.509Z,29.83
2023-08-19T12:07:30.891Z,29.89
2023-08-19T12:12:29.978Z,30.05
2023-08-19T12:17:26.694Z,29.52
2023-08-19T12:22:24.026Z,29.79
2023-08-19T12:27:20.442Z,29.73
2023-08-19T12:32:16.964Z,30.26
2023-08-19T12:37:13.344Z,31.00
2023-08-19T12:42:09.893Z,31.30
2023-08-19T12:47:06.507Z,31.47
2023-08-19T12:52:02.870Z,31.77
2023-08-19T12:56:59.412Z,32.16
2023-08-19T13:01:55.934Z,31.82
2023-08-19T13:06:52.306Z,31.01
2023-08-19T13:11:49.122Z,30.39
2023-08-19T13:16:45.628Z,31.31
2023-08-19T13:21:42.060Z,30.74
2023-08-19T13:26:38.458Z,30.45
2023-08-19T13:31:34.832Z,30.21
2023-08-19T13:36:31.226Z,30.45
2023-08-19T13:41:28.685Z,30.62
2023-08-19T13:46:25.641Z,30.13
2023-08-19T13:51:22.073Z,30.24
2023-08-19T13:56:18.419Z,29.79
2023-08-19T14:01:16.108Z,29.85
2023-08-19T14:06:12.540Z,29.27
2023-08-19T14:11:13.103Z,28.43
2023-08-19T14:16:09.783Z,28.28
2023-08-19T14:21:06.398Z,27.73
2023-08-19T14:26:06.604Z,27.25
2023-08-19T14:31:04.377Z,27.05
2023-08-19T14:36:00.690Z,26.78
2023-08-19T14:40:57.094Z,26.47
2023-08-19T14:45:53.913Z,26.21
2023-08-19T14:50:50.460Z,26.19
2023-08-19T14:55:46.868Z,26.22
2023-08-19T15:00:43.747Z,26.53
2023-08-19T15:05:40.249Z,26.51
2023-08-19T15:10:36.764Z,26.28
2023-08-19T15:15:33.228Z,26.28
2023-08-19T15:20:29.741Z,26.09
2023-08-19T15:25:26.299Z,26.05
2023-08-19T15:30:24.694Z,25.85
2023-08-19T15:35:22.016Z,25.90
2023-08-19T15:40:18.530Z,25.74
2023-08-19T15:45:15.474Z,25.59
2023-08-19T15:50:11.913Z,25.46
2023-08-19T15:55:09.808Z,25.30
2023-08-19T16:00:09.379Z,25.13
2023-08-19T16:05:06.051Z,25.13
2023-08-19T16:10:02.694Z,24.99
2023-08-19T16:14:59.066Z,24.85
2023-08-19T16:19:55.580Z,24.79
2023-08-19T16:24:52.037Z,24.69
2023-08-19T16:29:48.543Z,24.62
2023-08-19T16:34:44.941Z,24.41
2023-08-19T16:39:41.319Z,24.14
2023-08-19T16:44:37.710Z,24.15
2023-08-19T16:49:34.110Z,23.98
2023-08-19T16:54:30.559Z,23.87
2023-08-19T16:59:27.834Z,23.71
2023-08-19T17:04:24.238Z,23.88
2023-08-19T17:09:20.628Z,23.97
2023-08-19T17:14:17.003Z,23.90
2023-08-19T17:19:13.838Z,23.92
2023-08-19T17:24:10.310Z,23.85
2023-08-19T17:29:09.961Z,23.74
2023-08-19T17:34:08.441Z,23.61
2023-08-19T17:39:06.252Z,23.51
2023-08-19T17:44:02.951Z,23.44
2023-08-19T17:48:59.405Z,23.41
2023-08-19T17:53:55.784Z,23.49
2023-08-19T17:58:53.102Z,23.74
2023-08-19T18:03:49.674Z,24.38
2023-08-19T18:08:46.141Z,25.24
2023-08-19T18:13:42.542Z,24.92
2023-08-19T18:18:38.939Z,24.56
2023-08-19T18:23:35.374Z,24.17
2023-08-19T18:28:31.776Z,23.84
2023-08-19T18:33:28.166Z,23.66
2023-08-19T18:38:24.932Z,23.29
2023-08-19T18:43:21.303Z,23.13
2023-08-19T18:48:18.913Z,22.94
2023-08-19T18:53:15.295Z,22.79
2023-08-19T18:58:11.783Z,22.68
2023-08-19T19:03:08.260Z,22.69
2023-08-19T19:08:07.383Z,22.68
2023-08-19T19:13:04.041Z,22.58
2023-08-19T19:18:01.578Z,22.48
2023-08-19T19:22:59.000Z,22.44
2023-08-19T19:27:55.569Z,22.43
2023-08-19T19:32:52.325Z,22.37
2023-08-19T19:37:48.825Z,22.33
2023-08-19T19:42:45.633Z,22.28
2023-08-19T19:47:43.933Z,22.27
2023-08-19T19:52:40.408Z,22.15
2023-08-19T19:57:36.979Z,22.08
2023-08-19T20:02:33.651Z,22.08
2023-08-19T20:07:30.143Z,22.11
2023-08-19T20:12:26.595Z,21.92
2023-08-19T20:17:22.999Z,21.78
2023-08-19T20:22:19.766Z,21.74
2023-08-19T20:27:16.490Z,21.70
2023-08-19T20:32:13.008Z,21.58
2023-08-19T20:37:09.374Z,21.51
2023-08-19T20:42:05.954Z,21.48
2023-08-19T20:47:02.829Z,21.40
2023-08-19T20:51:59.222Z,21.38
2023-08-19T20:56:55.700Z,21.26
2023-08-19T21:01:52.112Z,21.22
2023-08-19T21:06:48.579Z,21.20
2023-08-19T21:11:44.985Z,21.14
2023-08-19T21:16:41.428Z,21.09
2023-08-19T21:21:38.031Z,21.09
2023-08-19T21:26:34.479Z,21.01
2023-08-19T21:31:31.025Z,21.03
2023-08-19T21:36:27.544Z,21.01
2023-08-19T21:41:23.964Z,20.97
2023-08-19T21:46:21.459Z,20.99
2023-08-19T21:51:18.753Z,21.08
2023-08-19T21:56:15.131Z,21.10
2023-08-19T22:01:11.586Z,21.00
2023-08-19T22:06:08.177Z,20.87
2023-08-19T22:11:04.662Z,20.89
2023-08-19T22:16:01.216Z,20.85
2023-08-19T22:20:57.605Z,20.81
2023-08-19T22:25:54.009Z,20.78
2023-08-19T22:30:51.714Z,20.78
2023-08-19T22:35:48.175Z,20.69
2023-08-19T22:40:44.647Z,20.65
2023-08-19T22:45:41.025Z,20.59
2023-08-19T22:50:37.520Z,20.57
2023-08-19T22:55:33.906Z,20.54
2023-08-19T23:00:30.356Z,20.53
2023-08-19T23:05:26.933Z,20.45
2023-08-19T23:10:23.627Z,20.32
2023-08-19T23:15:20.049Z,20.22
2023-08-19T23:20:16.459Z,20.14
2023-08-19T23:25:12.928Z,20.17
2023-08-19T23:30:10.184Z,20.11
2023-08-19T23:35:07.312Z,20.06
2023-08-19T23:40:05.515Z,19.91
2023-08-19T23:45:02.012Z,19.90
2023-08-19T23:49:58.841Z,19.78
2023-08-19T23:54:55.567Z,19.67
2023-08-19T23:59:52.567Z,19.68
